Hauptseite
METAR-TAF:

METAR-TAF

Flughäfen :

Lleida-Alguaire

Lleida, Spanien

Breite: 41-43-40N, Länge: 000-32-09E, Höhe: 350 m

Beobachtung

Neuester Wetterbericht von vor 15 Minuten, um 10:30 UTC
Wind 5 kt aus Südwest, variierte zwischen Süd und West/Nordwest
Temperatur 15°C
Luftfeuchtigkeit 67%
Luftdruck 1011 hPa
Sichtweite 10 km oder mehr
Leicht bewölkt in der Höhe von 1400 ft
Durchbrochene Bewölkung in der Höhe von 4000 ft

METAR: LEDA 251030Z 23005KT 190V300 9999 FEW014 BKN040 15/09 Q1011

Zeit: 12:45 (10:45 UTC)


TAF: fehlend

Wetterbeobachtungen und Prognosen von mehr als 4000 Flughäfen (METAR und TAF Bericht).

Die verfügbaren Stationen werden durch gelbe und rote Markierungen auf der Karte dargestellt.

Führen Sie die Maus auf sie, um den Namen der Station zu sehen.

Darauf klicken, um die Beobachtung von Wetterbeobachtungen und Prognosen zu sehen.

Um die Karte zu ändern : klicken Sie auf den grünen Tasten mit einem schwarzen Kreuz Zum Vergrößern, auf den grünen Button mit einem Gedankenstrich zu verkleinern, oder auf die grünen Pfeile für benachbarte Karten.


METAR-TAF: